Long Eaton, United Kingdom
Current Conditions -  °F | °C
As of 3:50 PM on Tuesday 21 Oct 2014 (Local Time) from EGNX Reporting Station
Rain Showers Rain Showers  
Wind Chill: 39°   Ceiling: Unl
Heat Index: 46°   Visibility: 6mi
Dew Point: 41°   Wind: 22mph
Humidity: 81%   Direction: 280°W
Pressure: 29.77"   Gusts: NA
Location:  52.9°N, 1.27°W
Report Text: EGNX 211450Z 28019KT 9999 VCSH SCT020CB SCT030 08/05 Q1008 RESHRA
Loading
Personal Weather Stations






























Interactive Weather Map
Tropical Storm Tracking
New forecast layout! Learn more

10-Day Weather Forecast

Advertisements
Track Severe Weather on mobile